createdAt,value
2018-07-25T00:01:05.208Z,84.57
2018-07-25T00:03:33.495Z,82.84
2018-07-25T00:06:01.707Z,82.07
2018-07-25T00:08:29.931Z,84.18
2018-07-25T00:10:58.145Z,83.68
2018-07-25T00:13:27.230Z,85.79
2018-07-25T00:15:55.837Z,85.80
2018-07-25T00:18:24.055Z,85.87
2018-07-25T00:20:52.305Z,85.76
2018-07-25T00:23:20.542Z,84.92
2018-07-25T00:25:48.742Z,85.06
2018-07-25T00:28:16.947Z,86.70
2018-07-25T00:30:45.168Z,86.50
2018-07-25T00:33:13.372Z,87.69
2018-07-25T00:35:41.574Z,86.44
2018-07-25T00:38:09.859Z,86.97
2018-07-25T00:40:38.191Z,87.08
2018-07-25T00:43:06.579Z,87.15
2018-07-25T00:45:34.806Z,89.61
2018-07-25T00:48:03.058Z,87.35
2018-07-25T00:50:31.298Z,88.34
2018-07-25T00:52:59.507Z,89.04
2018-07-25T00:55:27.764Z,87.89
2018-07-25T00:57:56.164Z,87.14
2018-07-25T01:00:24.365Z,89.25
2018-07-25T01:02:52.587Z,90.66
2018-07-25T01:05:20.798Z,90.80
2018-07-25T01:07:48.998Z,90.99
2018-07-25T01:10:17.214Z,91.57
2018-07-25T01:12:45.502Z,92.40
2018-07-25T01:15:13.714Z,91.59
2018-07-25T01:17:41.956Z,90.71
2018-07-25T01:20:10.186Z,89.53
2018-07-25T01:22:38.398Z,90.13
2018-07-25T01:25:06.647Z,89.28
2018-07-25T01:27:34.898Z,90.21
2018-07-25T01:30:03.155Z,90.42
2018-07-25T01:32:31.362Z,91.73
2018-07-25T01:34:59.574Z,91.32
2018-07-25T01:37:27.851Z,91.12
2018-07-25T01:39:56.075Z,90.21
2018-07-25T01:42:24.290Z,91.20
2018-07-25T01:44:52.513Z,89.78
2018-07-25T01:47:20.714Z,90.71
2018-07-25T01:49:48.918Z,91.09
2018-07-25T01:52:17.134Z,93.33
2018-07-25T01:54:45.338Z,92.82
2018-07-25T01:57:13.634Z,93.33
2018-07-25T01:59:41.850Z,94.38
2018-07-25T02:02:10.163Z,94.26
2018-07-25T02:04:38.423Z,94.39
2018-07-25T02:07:06.886Z,94.10
2018-07-25T02:09:35.192Z,94.92
2018-07-25T02:12:03.445Z,95.04
2018-07-25T02:14:31.654Z,95.88
2018-07-25T02:16:59.903Z,96.85
2018-07-25T02:19:28.181Z,98.81
2018-07-25T02:21:56.356Z,97.27
2018-07-25T02:24:24.576Z,96.91
2018-07-25T02:26:52.782Z,97.10
2018-07-25T02:29:20.989Z,96.30
2018-07-25T02:31:49.302Z,97.46
2018-07-25T02:34:21.834Z,98.51
2018-07-25T02:36:51.164Z,98.64
2018-07-25T02:39:19.378Z,97.93
2018-07-25T02:41:47.595Z,100.00
2018-07-25T02:44:16.035Z,100.00
2018-07-25T02:46:44.307Z,100.00
2018-07-25T02:49:12.540Z,100.00
2018-07-25T02:51:40.776Z,100.00
2018-07-25T02:54:09.095Z,100.00
2018-07-25T02:56:37.341Z,100.00
2018-07-25T02:59:05.603Z,100.00
2018-07-25T03:01:34.248Z,100.00
2018-07-25T03:04:02.481Z,100.00
2018-07-25T03:06:30.939Z,100.00
2018-07-25T03:08:59.170Z,100.00
2018-07-25T03:11:27.399Z,100.00
2018-07-25T03:13:55.626Z,100.00
2018-07-25T03:16:23.832Z,100.00
2018-07-25T03:18:52.050Z,100.00
2018-07-25T03:21:20.295Z,100.00
2018-07-25T03:23:48.620Z,100.00
2018-07-25T03:26:16.828Z,100.00
2018-07-25T03:28:45.038Z,100.00
2018-07-25T03:31:13.260Z,99.41
2018-07-25T03:33:41.453Z,98.42
2018-07-25T03:36:09.692Z,98.76
2018-07-25T03:38:37.915Z,98.08
2018-07-25T03:41:06.414Z,96.70
2018-07-25T03:43:34.638Z,97.49
2018-07-25T03:46:02.871Z,96.28
2018-07-25T03:48:31.112Z,97.34
2018-07-25T03:50:59.327Z,98.55
2018-07-25T03:53:27.526Z,99.05
2018-07-25T03:55:55.735Z,99.28
2018-07-25T03:58:23.970Z,98.53
2018-07-25T04:00:52.217Z,98.16
2018-07-25T04:03:51.365Z,99.56
2018-07-25T04:06:19.622Z,99.31
2018-07-25T04:08:47.847Z,98.78
2018-07-25T04:11:16.071Z,97.98
2018-07-25T04:13:44.290Z,97.72
2018-07-25T04:16:12.519Z,97.63
2018-07-25T04:18:40.738Z,97.65
2018-07-25T04:21:08.958Z,96.60
2018-07-25T04:23:37.159Z,97.53
2018-07-25T04:26:05.450Z,97.76
2018-07-25T04:28:33.655Z,99.18
2018-07-25T04:31:01.870Z,100.00
2018-07-25T04:33:30.100Z,100.00
2018-07-25T04:35:58.310Z,100.00
2018-07-25T04:38:26.576Z,98.24
2018-07-25T04:40:54.799Z,97.49
2018-07-25T04:43:23.006Z,97.14
2018-07-25T04:45:51.226Z,99.36
2018-07-25T04:48:19.438Z,97.95
2018-07-25T04:50:47.730Z,96.94
2018-07-25T04:53:15.934Z,94.83
2018-07-25T04:55:44.153Z,96.79
2018-07-25T04:58:12.371Z,96.42
2018-07-25T05:00:40.608Z,94.52
2018-07-25T05:03:08.842Z,92.38
2018-07-25T05:05:37.070Z,95.64
2018-07-25T05:08:05.367Z,93.58
2018-07-25T05:10:33.590Z,92.93
2018-07-25T05:13:01.816Z,91.96
2018-07-25T05:15:30.069Z,89.57
2018-07-25T05:17:58.366Z,88.27
2018-07-25T05:20:26.675Z,88.13
2018-07-25T05:22:55.190Z,87.64
2018-07-25T05:25:24.663Z,86.15
2018-07-25T05:27:52.906Z,85.80
2018-07-25T05:30:21.167Z,85.45
2018-07-25T05:32:49.398Z,84.35
2018-07-25T05:35:17.620Z,84.02
2018-07-25T05:37:45.843Z,85.49
2018-07-25T05:40:14.086Z,84.21
2018-07-25T05:42:42.303Z,83.14
2018-07-25T05:45:10.546Z,81.94
2018-07-25T05:47:38.783Z,81.73
2018-07-25T05:50:07.078Z,80.33
2018-07-25T05:52:35.351Z,80.56
2018-07-25T05:55:04.062Z,82.91
2018-07-25T05:57:32.282Z,80.25
2018-07-25T06:00:00.520Z,81.21
2018-07-25T06:02:28.728Z,80.78
2018-07-25T06:04:56.958Z,80.65
2018-07-25T06:07:25.166Z,82.93
2018-07-25T06:09:53.398Z,81.25
2018-07-25T06:12:21.632Z,79.80
2018-07-25T06:14:49.847Z,80.73
2018-07-25T06:17:18.100Z,80.98
2018-07-25T06:19:46.299Z,81.12
2018-07-25T06:22:14.538Z,82.00
2018-07-25T06:24:42.779Z,80.78
2018-07-25T06:27:10.995Z,79.99
2018-07-25T06:29:39.202Z,79.43
2018-07-25T06:32:07.438Z,78.56
2018-07-25T06:34:35.671Z,78.74
2018-07-25T06:37:03.890Z,78.44
2018-07-25T06:39:32.109Z,78.19
2018-07-25T06:42:00.346Z,78.45
2018-07-25T06:44:28.571Z,78.33
2018-07-25T06:46:56.815Z,77.83
2018-07-25T06:49:25.035Z,77.81
2018-07-25T06:51:53.271Z,76.53
2018-07-25T06:54:21.479Z,77.34
2018-07-25T06:56:49.712Z,78.02
2018-07-25T06:59:17.979Z,76.58
2018-07-25T07:01:46.235Z,77.55
2018-07-25T07:04:14.480Z,74.54
2018-07-25T07:06:42.732Z,74.39
2018-07-25T07:09:11.698Z,76.07
2018-07-25T07:11:39.955Z,74.07
2018-07-25T07:14:08.204Z,74.78
2018-07-25T07:16:36.519Z,75.03
2018-07-25T07:19:04.799Z,73.59
2018-07-25T07:21:33.259Z,72.27
2018-07-25T07:24:01.489Z,72.20
2018-07-25T07:26:29.726Z,72.30
2018-07-25T07:28:58.056Z,71.86
2018-07-25T07:31:26.395Z,71.25
2018-07-25T07:33:54.621Z,71.23
2018-07-25T07:36:23.344Z,72.18
2018-07-25T07:38:51.611Z,71.26
2018-07-25T07:41:19.887Z,69.60
2018-07-25T07:43:48.210Z,71.07
2018-07-25T07:46:16.534Z,70.05
2018-07-25T07:48:44.782Z,68.17
2018-07-25T07:51:13.040Z,67.32
2018-07-25T07:53:41.274Z,67.63
2018-07-25T07:56:09.534Z,67.21
2018-07-25T07:58:37.843Z,67.37
2018-07-25T08:01:06.097Z,68.79
2018-07-25T08:03:34.322Z,68.14
2018-07-25T08:06:02.732Z,66.94
2018-07-25T08:08:31.105Z,67.62
2018-07-25T08:10:59.342Z,69.14
2018-07-25T08:13:27.609Z,65.17
2018-07-25T08:15:55.899Z,66.26
2018-07-25T08:18:24.127Z,65.13
2018-07-25T08:20:52.395Z,66.60
2018-07-25T08:23:20.668Z,65.02
2018-07-25T08:25:49.003Z,64.05
2018-07-25T08:28:17.202Z,63.05
2018-07-25T08:30:45.454Z,64.63
2018-07-25T08:33:13.664Z,63.28
2018-07-25T08:35:41.903Z,61.80
2018-07-25T08:38:10.142Z,62.03
2018-07-25T08:40:38.390Z,61.96
2018-07-25T08:43:06.939Z,60.94
2018-07-25T08:45:35.204Z,62.00
2018-07-25T08:48:03.431Z,61.26
2018-07-25T08:50:31.672Z,59.29
2018-07-25T08:52:59.916Z,58.66
2018-07-25T08:55:28.211Z,57.76
2018-07-25T08:57:56.447Z,55.26
2018-07-25T09:00:24.710Z,56.84
2018-07-25T09:02:52.995Z,55.08
2018-07-25T09:05:21.223Z,54.59
2018-07-25T09:07:49.452Z,55.95
2018-07-25T09:10:17.687Z,50.99
2018-07-25T09:12:45.915Z,50.09
2018-07-25T09:15:14.116Z,48.93
2018-07-25T09:17:42.366Z,51.51
2018-07-25T09:20:10.601Z,51.81
2018-07-25T09:22:38.799Z,52.17
2018-07-25T09:25:07.068Z,50.09
2018-07-25T09:27:35.262Z,50.67
2018-07-25T09:30:03.513Z,49.40
2018-07-25T09:32:31.759Z,48.41
2018-07-25T09:34:59.975Z,49.78
2018-07-25T09:37:28.197Z,45.43
2018-07-25T09:39:56.447Z,47.50
2018-07-25T09:42:24.702Z,46.93
2018-07-25T09:44:52.914Z,48.34
2018-07-25T09:47:21.138Z,47.17
2018-07-25T09:49:49.334Z,44.87
2018-07-25T09:52:17.538Z,43.71
2018-07-25T09:54:45.781Z,40.43
2018-07-25T09:57:13.970Z,42.74
2018-07-25T09:59:42.209Z,44.54
2018-07-25T10:02:10.403Z,42.45
2018-07-25T10:04:38.612Z,43.73
2018-07-25T10:07:06.854Z,44.25
2018-07-25T10:09:35.062Z,43.44
2018-07-25T10:12:03.325Z,43.54
2018-07-25T10:14:31.533Z,46.49
2018-07-25T10:16:59.763Z,43.87
2018-07-25T10:19:27.971Z,43.26
2018-07-25T10:21:56.215Z,44.38
2018-07-25T10:24:24.426Z,43.40
2018-07-25T10:26:52.744Z,42.20
2018-07-25T10:29:20.942Z,42.25
2018-07-25T10:31:49.168Z,42.84
2018-07-25T10:34:17.367Z,41.96
2018-07-25T10:36:45.587Z,43.84
2018-07-25T10:39:13.825Z,40.28
2018-07-25T10:41:42.023Z,39.74
2018-07-25T10:44:10.240Z,41.02
2018-07-25T10:46:38.448Z,41.16
2018-07-25T10:49:06.683Z,41.07
2018-07-25T10:51:34.889Z,40.00
2018-07-25T10:54:03.108Z,39.98
2018-07-25T10:56:31.318Z,41.05
2018-07-25T10:58:59.575Z,42.28
2018-07-25T11:01:27.894Z,40.92
2018-07-25T11:03:56.121Z,39.60
2018-07-25T11:06:24.338Z,41.17
2018-07-25T11:09:31.605Z,38.94
2018-07-25T11:12:01.248Z,39.96
2018-07-25T11:14:29.461Z,41.21
2018-07-25T11:16:57.699Z,39.75
2018-07-25T11:19:25.934Z,43.09
2018-07-25T11:21:54.182Z,39.28
2018-07-25T11:24:22.428Z,38.13
2018-07-25T11:26:50.662Z,37.94
2018-07-25T11:29:18.888Z,37.97
2018-07-25T11:31:47.131Z,38.00
2018-07-25T11:34:15.342Z,41.59
2018-07-25T11:36:43.591Z,42.61
2018-07-25T11:39:13.079Z,40.05
2018-07-25T11:41:41.298Z,40.28
2018-07-25T11:44:09.521Z,38.26
2018-07-25T11:46:37.763Z,41.20
2018-07-25T11:49:06.220Z,38.46
2018-07-25T11:51:34.431Z,37.56
2018-07-25T11:54:02.659Z,36.62
2018-07-25T11:56:30.930Z,38.61
2018-07-25T11:58:59.166Z,38.82
2018-07-25T12:01:27.562Z,38.50
2018-07-25T12:03:55.971Z,37.04
2018-07-25T12:06:24.628Z,36.68
2018-07-25T12:08:53.189Z,38.07
2018-07-25T12:11:21.415Z,35.40
2018-07-25T12:13:49.823Z,37.06
2018-07-25T12:16:18.257Z,39.90
2018-07-25T12:18:46.754Z,35.62
2018-07-25T12:21:15.160Z,39.29
2018-07-25T12:23:43.338Z,39.02
2018-07-25T12:26:11.583Z,39.45
2018-07-25T12:28:39.868Z,39.19
2018-07-25T12:31:08.292Z,39.14
2018-07-25T12:33:36.618Z,38.53
2018-07-25T12:36:05.434Z,38.98
2018-07-25T12:38:33.638Z,39.37
2018-07-25T12:41:01.890Z,37.84
2018-07-25T12:43:30.111Z,40.61
2018-07-25T12:45:58.397Z,39.25
2018-07-25T12:48:26.667Z,38.15
2018-07-25T12:50:54.950Z,38.26
2018-07-25T12:53:23.169Z,38.91
2018-07-25T12:55:51.399Z,36.81
2018-07-25T12:58:19.610Z,38.65
2018-07-25T13:00:47.838Z,37.96
2018-07-25T13:03:16.053Z,35.65
2018-07-25T13:05:44.278Z,37.45
2018-07-25T13:08:12.499Z,38.12
2018-07-25T13:10:40.735Z,35.40
2018-07-25T13:13:08.974Z,38.88
2018-07-25T13:15:37.260Z,35.27
2018-07-25T13:18:05.861Z,36.57
2018-07-25T13:20:34.091Z,36.61
2018-07-25T13:23:02.336Z,36.43
2018-07-25T13:28:20.639Z,36.44
2018-07-25T13:30:48.876Z,36.22
2018-07-25T13:33:17.087Z,36.88
2018-07-25T13:35:45.317Z,38.17
2018-07-25T13:38:13.533Z,36.77
2018-07-25T13:40:41.732Z,36.32
2018-07-25T13:43:09.982Z,36.27
2018-07-25T13:45:38.301Z,36.20
2018-07-25T13:48:06.466Z,35.10
2018-07-25T13:50:34.688Z,33.63
2018-07-25T13:53:03.210Z,35.77
2018-07-25T13:55:31.410Z,35.25
2018-07-25T13:57:59.881Z,33.99
2018-07-25T14:00:28.082Z,34.94
2018-07-25T14:02:56.299Z,36.90
2018-07-25T14:05:24.508Z,35.45
2018-07-25T14:07:52.726Z,37.33
2018-07-25T14:10:20.969Z,36.33
2018-07-25T14:12:49.196Z,38.24
2018-07-25T14:15:17.406Z,38.82
2018-07-25T14:17:45.639Z,38.47
2018-07-25T14:20:13.854Z,41.60
2018-07-25T14:22:42.066Z,36.89
2018-07-25T14:25:10.323Z,32.09
2018-07-25T14:27:38.750Z,32.35
2018-07-25T14:30:07.126Z,30.99
2018-07-25T14:32:35.537Z,31.00
2018-07-25T14:35:03.800Z,32.47
2018-07-25T14:37:32.030Z,33.12
2018-07-25T14:40:00.432Z,32.57
2018-07-25T14:42:28.437Z,34.63
2018-07-25T14:44:56.750Z,34.17
2018-07-25T14:47:24.958Z,35.41
2018-07-25T14:49:53.158Z,32.56
2018-07-25T14:52:21.390Z,33.57
2018-07-25T14:54:49.570Z,34.65
2018-07-25T14:57:17.778Z,36.87
2018-07-25T14:59:45.982Z,35.50
2018-07-25T15:02:14.237Z,36.84
2018-07-25T15:04:42.668Z,36.43
2018-07-25T15:07:11.890Z,37.34
2018-07-25T15:09:40.119Z,39.63
2018-07-25T15:12:08.600Z,38.88
2018-07-25T15:14:36.833Z,38.46
2018-07-25T15:17:05.062Z,39.75
2018-07-25T15:19:33.558Z,40.24
2018-07-25T15:22:01.882Z,40.39
2018-07-25T15:24:30.071Z,41.77
2018-07-25T15:26:58.278Z,40.76
2018-07-25T15:29:26.507Z,40.89
2018-07-25T15:31:54.678Z,41.29
2018-07-25T15:34:22.909Z,40.67
2018-07-25T15:36:52.363Z,43.43
2018-07-25T15:39:24.662Z,42.77
2018-07-25T15:41:53.758Z,39.93
2018-07-25T15:44:22.965Z,40.88
2018-07-25T15:46:51.246Z,39.24
2018-07-25T15:49:19.426Z,40.00
2018-07-25T15:51:47.671Z,40.64
2018-07-25T15:54:15.957Z,40.51
2018-07-25T15:56:44.191Z,40.89
2018-07-25T15:59:12.486Z,41.09
2018-07-25T16:01:40.746Z,41.74
2018-07-25T16:04:09.105Z,40.98
2018-07-25T16:06:37.379Z,39.84
2018-07-25T16:09:08.961Z,38.57
2018-07-25T16:11:37.609Z,39.26
2018-07-25T16:14:05.843Z,41.03
2018-07-25T16:16:34.069Z,40.88
2018-07-25T16:19:02.334Z,40.39
2018-07-25T16:21:30.628Z,36.87
2018-07-25T16:23:58.923Z,33.30
2018-07-25T16:26:27.110Z,35.19
2018-07-25T16:28:55.546Z,33.90
2018-07-25T16:31:23.774Z,33.51
2018-07-25T16:33:52.015Z,29.10
2018-07-25T16:36:20.305Z,29.89
2018-07-25T16:38:48.514Z,30.03
2018-07-25T16:41:16.726Z,31.41
2018-07-25T16:43:44.984Z,29.83
2018-07-25T16:46:13.177Z,31.50
2018-07-25T16:48:41.374Z,31.62
2018-07-25T16:54:41.315Z,33.61
2018-07-25T16:57:09.578Z,33.35
2018-07-25T16:59:37.822Z,32.19
2018-07-25T17:02:06.138Z,32.19
2018-07-25T17:04:34.333Z,33.74
2018-07-25T17:07:02.558Z,32.67
2018-07-25T17:09:30.817Z,33.49
2018-07-25T17:11:59.061Z,33.36
2018-07-25T17:14:27.284Z,35.97
2018-07-25T17:16:55.542Z,36.37
2018-07-25T17:19:23.758Z,36.47
2018-07-25T17:21:51.970Z,38.42
2018-07-25T17:24:20.193Z,40.13
2018-07-25T17:26:48.402Z,41.24
2018-07-25T17:29:16.674Z,41.63
2018-07-25T17:31:44.885Z,40.97
2018-07-25T17:34:13.089Z,42.72
2018-07-25T17:36:41.302Z,43.84
2018-07-25T17:39:10.975Z,39.55
2018-07-25T17:41:39.723Z,40.21
2018-07-25T17:44:07.950Z,42.47
2018-07-25T17:46:36.190Z,41.02
2018-07-25T17:49:04.443Z,42.59
2018-07-25T17:51:32.646Z,43.99
2018-07-25T17:54:00.870Z,44.72
2018-07-25T17:56:29.108Z,44.20
2018-07-25T17:58:57.298Z,43.92
2018-07-25T18:01:25.538Z,46.65
2018-07-25T18:03:53.799Z,45.11
2018-07-25T18:06:22.046Z,45.15
2018-07-25T18:08:50.262Z,44.25
2018-07-25T18:11:18.463Z,44.94
2018-07-25T18:13:51.954Z,45.61
2018-07-25T18:16:20.162Z,44.76
2018-07-25T18:18:48.362Z,45.14
2018-07-25T18:21:16.591Z,45.33
2018-07-25T18:23:44.797Z,45.38
2018-07-25T18:26:13.010Z,46.08
2018-07-25T18:28:41.213Z,47.71
2018-07-25T18:31:09.446Z,46.72
2018-07-25T18:33:37.644Z,47.55
2018-07-25T18:36:05.857Z,47.19
2018-07-25T18:38:34.067Z,45.90
2018-07-25T18:41:02.285Z,47.25
2018-07-25T18:43:30.518Z,47.37
2018-07-25T18:45:58.720Z,46.86
2018-07-25T18:48:26.941Z,48.70
2018-07-25T18:50:55.154Z,47.61
2018-07-25T18:53:23.370Z,49.97
2018-07-25T18:55:51.582Z,48.95
2018-07-25T18:58:19.827Z,48.71
2018-07-25T19:00:48.059Z,48.60
2018-07-25T19:03:16.260Z,48.25
2018-07-25T19:05:44.466Z,46.22
2018-07-25T19:08:12.694Z,47.44
2018-07-25T19:10:40.939Z,48.03
2018-07-25T19:13:14.458Z,48.10
2018-07-25T19:15:42.665Z,49.36
2018-07-25T19:18:10.866Z,49.31
2018-07-25T19:20:39.079Z,51.24
2018-07-25T19:23:07.262Z,50.29
2018-07-25T19:25:35.471Z,50.26
2018-07-25T19:28:03.684Z,51.79
2018-07-25T19:30:31.889Z,52.68
2018-07-25T19:33:00.102Z,54.91
2018-07-25T19:35:28.318Z,52.97
2018-07-25T19:37:56.530Z,53.75
2018-07-25T19:40:24.741Z,54.34
2018-07-25T19:42:53.014Z,53.63
2018-07-25T19:45:21.281Z,53.86
2018-07-25T19:47:49.492Z,54.41
2018-07-25T19:50:17.959Z,54.30
2018-07-25T19:52:46.110Z,55.60
2018-07-25T19:55:14.322Z,56.54
2018-07-25T19:57:42.570Z,56.04
2018-07-25T20:00:16.380Z,56.49
2018-07-25T20:02:39.018Z,55.35
2018-07-25T20:05:07.650Z,56.58
2018-07-25T20:07:36.147Z,57.64
2018-07-25T20:10:04.606Z,59.38
2018-07-25T20:12:32.869Z,60.48
2018-07-25T20:15:06.326Z,66.73
2018-07-25T20:17:34.534Z,69.36
2018-07-25T20:20:02.783Z,68.71
2018-07-25T20:22:31.003Z,66.96
2018-07-25T20:24:59.455Z,68.76
2018-07-25T20:27:27.678Z,70.15
2018-07-25T20:29:55.882Z,68.37
2018-07-25T20:32:24.135Z,70.97
2018-07-25T20:34:52.350Z,71.56
2018-07-25T20:37:20.615Z,73.91
2018-07-25T20:39:48.814Z,74.11
2018-07-25T20:42:17.081Z,73.20
2018-07-25T20:44:45.277Z,73.94
2018-07-25T20:47:13.545Z,75.70
2018-07-25T20:49:41.761Z,76.07
2018-07-25T20:52:09.983Z,77.23
2018-07-25T20:54:38.186Z,75.71
2018-07-25T20:57:06.406Z,76.18
2018-07-25T20:59:34.652Z,76.54
2018-07-25T21:02:02.854Z,77.29
2018-07-25T21:04:31.083Z,74.24
2018-07-25T21:06:59.286Z,69.04
2018-07-25T21:09:27.494Z,71.01
2018-07-25T21:11:55.710Z,69.03
2018-07-25T21:14:23.960Z,66.56
2018-07-25T21:16:52.178Z,66.47
2018-07-25T21:19:20.394Z,68.75
2018-07-25T21:21:48.681Z,67.04
2018-07-25T21:24:16.842Z,68.88
2018-07-25T21:26:45.055Z,69.53
2018-07-25T21:29:13.282Z,70.58
2018-07-25T21:31:41.486Z,68.44
2018-07-25T21:34:09.722Z,70.40
2018-07-25T21:36:37.949Z,68.65
2018-07-25T21:39:08.570Z,69.28
2018-07-25T21:41:36.777Z,70.12
2018-07-25T21:44:05.027Z,70.75
2018-07-25T21:46:33.321Z,68.25
2018-07-25T21:49:01.515Z,69.73
2018-07-25T21:51:29.721Z,68.36
2018-07-25T21:53:57.945Z,70.19
2018-07-25T21:56:26.220Z,69.58
2018-07-25T21:58:54.491Z,70.07
2018-07-25T22:01:22.698Z,70.30
2018-07-25T22:03:51.012Z,70.53
2018-07-25T22:06:19.137Z,70.01
2018-07-25T22:08:47.347Z,69.51
2018-07-25T22:11:15.580Z,70.59
2018-07-25T22:13:49.090Z,70.55
2018-07-25T22:16:17.291Z,71.58
2018-07-25T22:18:45.930Z,70.13
2018-07-25T22:21:14.463Z,70.51
2018-07-25T22:23:42.683Z,71.30
2018-07-25T22:26:10.881Z,71.31
2018-07-25T22:28:39.160Z,71.38
2018-07-25T22:31:07.369Z,72.45
2018-07-25T22:33:35.587Z,74.40
2018-07-25T22:36:03.942Z,74.72
2018-07-25T22:38:32.165Z,77.46
2018-07-25T22:41:00.388Z,78.71
2018-07-25T22:43:28.631Z,78.75
2018-07-25T22:45:56.901Z,77.55
2018-07-25T22:48:25.200Z,76.73
2018-07-25T22:50:53.446Z,77.73
2018-07-25T22:53:21.658Z,77.59
2018-07-25T22:55:49.950Z,78.28
2018-07-25T22:58:18.156Z,77.68
2018-07-25T23:00:46.382Z,81.33
2018-07-25T23:03:14.594Z,81.53
2018-07-25T23:05:42.802Z,82.81
2018-07-25T23:08:11.032Z,82.53
2018-07-25T23:10:39.257Z,83.95
2018-07-25T23:13:07.461Z,82.45
2018-07-25T23:15:35.688Z,83.74
2018-07-25T23:18:03.934Z,83.44
2018-07-25T23:20:32.134Z,83.50
2018-07-25T23:23:01.203Z,83.34
2018-07-25T23:25:29.803Z,81.83
2018-07-25T23:27:59.105Z,82.91
2018-07-25T23:30:28.537Z,82.62
2018-07-25T23:32:56.765Z,83.85
2018-07-25T23:35:24.982Z,83.95
2018-07-25T23:37:53.212Z,83.56
2018-07-25T23:40:21.482Z,82.20
2018-07-25T23:42:50.222Z,84.70
2018-07-25T23:45:18.768Z,85.56
2018-07-25T23:47:46.977Z,86.12
2018-07-25T23:50:15.194Z,82.91
2018-07-25T23:52:43.409Z,85.09
2018-07-25T23:55:11.622Z,87.70
2018-07-25T23:57:39.854Z,86.59
